createdAt,value
2023-03-31T00:00:56.684Z,21.80
2023-03-31T00:01:56.688Z,22.20
2023-03-31T00:02:56.741Z,21.40
2023-03-31T00:03:56.831Z,22.30
2023-03-31T00:04:56.704Z,21.80
2023-03-31T00:05:56.697Z,22.30
2023-03-31T00:06:56.624Z,21.30
2023-03-31T00:07:56.600Z,21.80
2023-03-31T00:08:56.590Z,22.10
2023-03-31T00:10:10.421Z,22.00
2023-03-31T00:10:57.584Z,22.70
2023-03-31T00:11:56.550Z,21.80
2023-03-31T00:12:56.562Z,22.50
2023-03-31T00:13:56.529Z,22.30
2023-03-31T00:14:56.580Z,22.00
2023-03-31T00:15:56.506Z,21.40
2023-03-31T00:16:56.586Z,21.70
2023-03-31T00:17:56.502Z,22.20
2023-03-31T00:18:56.491Z,22.10
2023-03-31T00:19:56.460Z,22.10
2023-03-31T00:20:56.444Z,22.50
2023-03-31T00:21:56.417Z,22.50
2023-03-31T00:22:56.417Z,22.50
2023-03-31T00:23:56.423Z,21.90
2023-03-31T00:24:56.376Z,22.00
2023-03-31T00:25:56.372Z,21.80
2023-03-31T00:26:56.370Z,21.90
2023-03-31T00:27:56.354Z,21.50
2023-03-31T00:28:56.364Z,21.80
2023-03-31T00:29:56.317Z,21.60
2023-03-31T00:30:56.294Z,21.50
2023-03-31T00:31:56.365Z,21.80
2023-03-31T00:32:56.333Z,21.90
2023-03-31T00:33:56.270Z,21.80
2023-03-31T00:34:56.262Z,22.00
2023-03-31T00:35:56.273Z,22.10
2023-03-31T00:36:56.232Z,22.00
2023-03-31T00:37:56.234Z,21.10
2023-03-31T00:38:56.199Z,21.40
2023-03-31T00:39:56.216Z,21.30
2023-03-31T00:40:56.223Z,22.10
2023-03-31T00:41:56.170Z,21.60
2023-03-31T00:42:56.157Z,22.00
2023-03-31T00:43:56.144Z,22.20
2023-03-31T00:44:56.115Z,22.20
2023-03-31T00:45:56.172Z,23.20
2023-03-31T00:46:56.121Z,22.80
2023-03-31T00:47:56.209Z,21.70
2023-03-31T00:48:56.073Z,23.00
2023-03-31T00:49:56.074Z,22.20
2023-03-31T00:50:56.062Z,22.20
2023-03-31T00:51:56.042Z,21.90
2023-03-31T00:52:56.006Z,22.50
2023-03-31T00:53:56.003Z,21.90
2023-03-31T00:54:56.001Z,22.30
2023-03-31T00:55:56.000Z,22.60
2023-03-31T00:56:55.966Z,22.60
2023-03-31T00:57:55.989Z,22.60
2023-03-31T00:58:55.932Z,22.70
2023-03-31T00:59:55.946Z,22.10
2023-03-31T01:00:55.930Z,21.90
2023-03-31T01:01:55.906Z,21.90
2023-03-31T01:02:56.156Z,22.90
2023-03-31T01:03:55.940Z,21.90
2023-03-31T01:04:55.861Z,22.00
2023-03-31T01:05:55.858Z,21.90
2023-03-31T01:06:55.863Z,22.40
2023-03-31T01:07:55.823Z,21.90
2023-03-31T01:08:55.836Z,22.00
2023-03-31T01:09:55.807Z,22.00
2023-03-31T01:10:55.773Z,21.70
2023-03-31T01:11:55.786Z,21.80
2023-03-31T01:12:55.748Z,21.80
2023-03-31T01:13:55.761Z,22.30
2023-03-31T01:14:55.739Z,22.20
2023-03-31T01:15:55.734Z,22.10
2023-03-31T01:16:55.763Z,22.30
2023-03-31T01:17:55.920Z,22.30
2023-03-31T01:18:55.697Z,22.10
2023-03-31T01:19:55.679Z,21.90
2023-03-31T01:20:55.657Z,22.10
2023-03-31T01:21:55.651Z,22.10
2023-03-31T01:22:55.619Z,22.00
2023-03-31T01:23:55.699Z,22.40
2023-03-31T01:24:55.615Z,22.00
2023-03-31T01:25:55.591Z,21.90
2023-03-31T01:26:55.570Z,22.50
2023-03-31T01:27:55.578Z,22.00
2023-03-31T01:28:55.549Z,23.00
2023-03-31T01:29:55.563Z,21.90
2023-03-31T01:30:55.618Z,22.00
2023-03-31T01:31:55.513Z,22.10
2023-03-31T01:32:55.527Z,21.50
2023-03-31T01:33:55.503Z,22.40
2023-03-31T01:34:55.461Z,21.80
2023-03-31T01:35:55.520Z,22.40
2023-03-31T01:36:55.438Z,21.90
2023-03-31T01:37:55.429Z,22.50
2023-03-31T01:38:55.446Z,22.10
2023-03-31T01:39:55.430Z,22.30
2023-03-31T01:40:55.390Z,21.50
2023-03-31T01:41:55.388Z,22.60
2023-03-31T01:42:55.390Z,22.00
2023-03-31T01:43:55.402Z,22.20
2023-03-31T01:44:55.357Z,22.20
2023-03-31T01:45:55.375Z,22.30
2023-03-31T01:46:55.324Z,22.30
2023-03-31T01:47:55.351Z,22.70
2023-03-31T01:48:55.303Z,22.10
2023-03-31T01:49:55.303Z,22.50
2023-03-31T01:50:55.264Z,22.10
2023-03-31T01:51:55.274Z,22.50
2023-03-31T01:52:55.245Z,23.10
2023-03-31T01:53:55.222Z,22.20
2023-03-31T01:54:55.219Z,23.00
2023-03-31T01:55:55.219Z,22.00
2023-03-31T01:56:55.197Z,21.30
2023-03-31T01:57:55.182Z,21.90
2023-03-31T01:58:55.171Z,22.40
2023-03-31T01:59:55.141Z,22.50
2023-03-31T02:00:55.138Z,22.60
2023-03-31T02:01:55.208Z,22.60
2023-03-31T02:02:55.217Z,22.30
2023-03-31T02:03:55.132Z,22.60
2023-03-31T02:04:55.114Z,21.90
2023-03-31T02:05:55.093Z,22.60
2023-03-31T02:06:55.057Z,22.70
2023-03-31T02:07:55.061Z,22.90
2023-03-31T02:08:55.045Z,22.10
2023-03-31T02:09:55.031Z,22.50
2023-03-31T02:10:55.017Z,22.60
2023-03-31T02:11:55.117Z,22.80
2023-03-31T02:12:54.994Z,21.90
2023-03-31T02:13:54.960Z,21.80
2023-03-31T02:14:54.968Z,21.80
2023-03-31T02:15:55.028Z,22.20
2023-03-31T02:16:54.954Z,22.10
2023-03-31T02:17:54.987Z,22.70
2023-03-31T02:18:54.900Z,22.00
2023-03-31T02:19:54.903Z,22.00
2023-03-31T02:20:54.884Z,22.20
2023-03-31T02:21:54.861Z,21.80
2023-03-31T02:22:54.858Z,22.20
2023-03-31T02:23:54.849Z,22.70
2023-03-31T02:24:54.834Z,21.90
2023-03-31T02:25:54.846Z,22.40
2023-03-31T02:26:54.807Z,21.60
2023-03-31T02:27:54.793Z,22.10
2023-03-31T02:28:54.779Z,22.10
2023-03-31T02:29:54.758Z,22.90
2023-03-31T02:30:54.758Z,22.00
2023-03-31T02:31:54.786Z,21.70
2023-03-31T02:32:54.793Z,21.60
2023-03-31T02:33:54.724Z,22.40
2023-03-31T02:34:54.698Z,22.50
2023-03-31T02:35:54.718Z,21.50
2023-03-31T02:36:54.674Z,21.60
2023-03-31T02:37:54.675Z,22.80
2023-03-31T02:38:54.650Z,22.50
2023-03-31T02:39:54.658Z,22.20
2023-03-31T02:40:54.642Z,22.50
2023-03-31T02:41:54.630Z,22.00
2023-03-31T02:42:54.595Z,22.20
2023-03-31T02:43:54.608Z,22.30
2023-03-31T02:44:54.593Z,22.00
2023-03-31T02:45:54.663Z,22.10
2023-03-31T02:46:54.555Z,21.80
2023-03-31T02:47:54.616Z,21.90
2023-03-31T02:48:54.536Z,22.20
2023-03-31T02:49:54.524Z,21.90
2023-03-31T02:50:54.490Z,21.80
2023-03-31T02:51:54.477Z,22.20
2023-03-31T02:52:54.481Z,22.70
2023-03-31T02:53:54.479Z,21.50
2023-03-31T02:54:54.437Z,22.30
2023-03-31T02:55:54.455Z,20.80
2023-03-31T02:56:54.427Z,22.40
2023-03-31T02:57:54.442Z,22.00
2023-03-31T02:58:54.374Z,21.20
2023-03-31T02:59:54.399Z,21.40
2023-03-31T03:00:54.422Z,21.40
2023-03-31T03:01:55.470Z,22.00
2023-03-31T03:02:54.514Z,21.10
2023-03-31T03:03:54.353Z,21.10
2023-03-31T03:04:54.317Z,20.80
2023-03-31T03:05:54.307Z,21.30
2023-03-31T03:06:54.275Z,21.20
2023-03-31T03:07:54.294Z,21.40
2023-03-31T03:08:54.263Z,21.90
2023-03-31T03:09:54.257Z,21.20
2023-03-31T03:10:54.258Z,22.00
2023-03-31T03:11:54.249Z,20.70
2023-03-31T03:12:54.219Z,21.00
2023-03-31T03:13:54.209Z,20.90
2023-03-31T03:14:54.202Z,21.00
2023-03-31T03:15:54.186Z,20.70
2023-03-31T03:16:54.244Z,21.00
2023-03-31T03:17:54.173Z,21.20
2023-03-31T03:18:54.138Z,20.70
2023-03-31T03:19:54.138Z,21.30
2023-03-31T03:20:54.120Z,21.10
2023-03-31T03:21:54.112Z,21.30
2023-03-31T03:22:54.101Z,20.60
2023-03-31T03:23:54.072Z,21.70
2023-03-31T03:24:54.045Z,21.30
2023-03-31T03:25:54.067Z,20.60
2023-03-31T03:26:54.038Z,22.20
2023-03-31T03:27:54.032Z,21.10
2023-03-31T03:28:54.022Z,21.20
2023-03-31T03:29:54.002Z,21.40
2023-03-31T03:30:54.023Z,21.50
2023-03-31T03:31:53.978Z,21.80
2023-03-31T03:32:54.000Z,22.00
2023-03-31T03:33:53.986Z,21.80
2023-03-31T03:34:53.933Z,20.80
2023-03-31T03:35:53.970Z,21.30
2023-03-31T03:36:53.949Z,21.60
2023-03-31T03:37:53.893Z,21.50
2023-03-31T03:38:53.868Z,21.10
2023-03-31T03:39:53.872Z,21.50
2023-03-31T03:40:53.854Z,21.50
2023-03-31T03:41:53.859Z,22.20
2023-03-31T03:42:53.823Z,21.30
2023-03-31T03:43:53.817Z,20.90
2023-03-31T03:44:53.814Z,21.10
2023-03-31T03:45:53.815Z,20.80
2023-03-31T03:46:53.767Z,21.20
2023-03-31T03:47:53.834Z,20.30
2023-03-31T03:48:53.738Z,21.70
2023-03-31T03:49:53.739Z,21.10
2023-03-31T03:50:53.726Z,21.20
2023-03-31T03:51:53.727Z,21.10
2023-03-31T03:54:03.800Z,19.60
2023-03-31T03:55:03.794Z,19.40
2023-03-31T03:56:06.638Z,20.60
2023-03-31T03:57:03.836Z,20.30
2023-03-31T03:58:03.774Z,21.00
2023-03-31T03:59:03.772Z,21.50
2023-03-31T04:00:03.747Z,21.00
2023-03-31T04:01:03.723Z,20.90
2023-03-31T04:02:03.753Z,22.20
2023-03-31T04:03:03.798Z,20.50
2023-03-31T04:04:03.682Z,20.70
2023-03-31T04:05:03.687Z,20.60
2023-03-31T04:06:03.999Z,20.20
2023-03-31T04:07:03.687Z,20.30
2023-03-31T04:08:03.623Z,21.50
2023-03-31T04:09:03.625Z,20.60
2023-03-31T04:10:03.590Z,20.80
2023-03-31T04:11:03.616Z,20.90
2023-03-31T04:12:03.585Z,20.80
2023-03-31T04:13:03.563Z,20.60
2023-03-31T04:14:03.546Z,20.70
2023-03-31T04:15:03.598Z,20.80
2023-03-31T04:16:03.534Z,20.30
2023-03-31T04:17:03.559Z,20.80
2023-03-31T04:18:03.533Z,19.90
2023-03-31T04:19:03.498Z,20.50
2023-03-31T04:20:03.477Z,20.40
2023-03-31T04:21:03.483Z,20.60
2023-03-31T04:22:03.464Z,21.20
2023-03-31T04:23:03.449Z,20.00
2023-03-31T04:24:03.398Z,20.10
2023-03-31T04:25:03.413Z,20.10
2023-03-31T04:26:03.576Z,20.80
2023-03-31T04:27:03.471Z,20.30
2023-03-31T04:28:03.362Z,20.70
2023-03-31T04:29:03.511Z,20.90
2023-03-31T04:30:03.443Z,20.70
2023-03-31T04:31:03.326Z,20.40
2023-03-31T04:32:03.352Z,20.90
2023-03-31T04:33:03.329Z,20.70
2023-03-31T04:34:03.341Z,20.90
2023-03-31T04:35:03.305Z,20.70
2023-03-31T04:36:03.368Z,19.90
2023-03-31T04:37:03.262Z,20.30
2023-03-31T04:38:03.244Z,21.00
2023-03-31T04:39:03.221Z,20.30
2023-03-31T04:40:03.190Z,20.20
2023-03-31T04:41:03.181Z,20.00
2023-03-31T04:42:03.152Z,20.40
2023-03-31T04:43:03.166Z,19.80
2023-03-31T04:44:03.163Z,19.80
2023-03-31T04:45:03.151Z,19.80
2023-03-31T04:46:03.326Z,19.10
2023-03-31T04:47:03.398Z,20.00
2023-03-31T04:48:03.128Z,19.40
2023-03-31T04:49:03.095Z,19.70
2023-03-31T04:50:03.089Z,19.70
2023-03-31T04:51:03.074Z,20.20
2023-03-31T04:52:03.047Z,20.30
2023-03-31T04:53:03.050Z,19.60
2023-03-31T04:54:03.031Z,19.50
2023-03-31T04:55:02.997Z,21.10
2023-03-31T04:56:03.006Z,20.70
2023-03-31T04:57:02.979Z,19.80
2023-03-31T04:58:03.018Z,20.50
2023-03-31T04:59:02.959Z,20.10
2023-03-31T05:00:02.948Z,19.70
2023-03-31T05:01:02.980Z,20.40
2023-03-31T05:02:03.008Z,20.50
2023-03-31T05:03:02.961Z,20.50
2023-03-31T05:04:02.909Z,19.80
2023-03-31T05:05:02.862Z,20.00
2023-03-31T05:06:02.884Z,19.80
2023-03-31T05:07:02.837Z,20.30
2023-03-31T05:08:02.828Z,20.40
2023-03-31T05:09:02.841Z,20.00
2023-03-31T05:10:02.824Z,20.50
2023-03-31T05:11:02.833Z,20.50
2023-03-31T05:12:02.840Z,21.00
2023-03-31T05:13:02.841Z,20.10
2023-03-31T05:14:02.774Z,20.70
2023-03-31T05:15:02.778Z,20.20
2023-03-31T05:16:02.821Z,20.30
2023-03-31T05:17:02.791Z,20.10
2023-03-31T05:18:02.864Z,20.90
2023-03-31T05:19:02.789Z,20.10
2023-03-31T05:20:02.706Z,20.50
2023-03-31T05:21:02.706Z,20.30
2023-03-31T05:22:02.668Z,19.50
2023-03-31T05:23:02.646Z,20.30
2023-03-31T05:24:02.610Z,20.10
2023-03-31T05:25:02.636Z,20.20
2023-03-31T05:26:02.616Z,19.40
2023-03-31T05:27:02.599Z,20.40
2023-03-31T05:28:02.586Z,19.20
2023-03-31T05:29:02.557Z,19.90
2023-03-31T05:30:02.536Z,19.50
2023-03-31T05:31:02.519Z,19.90
2023-03-31T05:32:02.595Z,19.90
2023-03-31T05:33:02.610Z,20.30
2023-03-31T05:34:02.500Z,20.10
2023-03-31T05:35:02.482Z,20.00
2023-03-31T05:36:02.487Z,20.00
2023-03-31T05:37:02.461Z,20.40
2023-03-31T05:38:02.461Z,19.60
2023-03-31T05:39:02.426Z,20.90
2023-03-31T05:40:02.566Z,19.80
2023-03-31T05:41:02.384Z,19.30
2023-03-31T05:42:02.397Z,19.80
2023-03-31T05:43:02.390Z,19.40
2023-03-31T05:44:02.389Z,20.90
2023-03-31T05:45:02.349Z,19.60
2023-03-31T05:46:02.376Z,20.10
2023-03-31T05:47:02.322Z,19.60
2023-03-31T05:48:02.418Z,19.80
2023-03-31T05:49:02.302Z,19.40
2023-03-31T05:50:02.292Z,19.90
2023-03-31T05:51:02.278Z,19.50
2023-03-31T05:52:02.245Z,19.40
2023-03-31T05:53:02.256Z,20.30
2023-03-31T05:54:02.248Z,19.40
2023-03-31T05:55:02.226Z,20.80
2023-03-31T05:56:02.243Z,19.30
2023-03-31T05:57:02.209Z,20.40
2023-03-31T05:58:02.205Z,18.90
2023-03-31T05:59:02.167Z,20.10
2023-03-31T06:00:02.194Z,19.50
2023-03-31T06:01:02.193Z,19.30
2023-03-31T06:02:02.201Z,19.90
2023-03-31T06:03:02.256Z,20.10
2023-03-31T06:04:02.156Z,20.00
2023-03-31T06:05:02.170Z,19.40
2023-03-31T06:06:02.091Z,19.60
2023-03-31T06:07:02.046Z,19.20
2023-03-31T06:08:02.060Z,20.30
2023-03-31T06:09:02.018Z,19.20
2023-03-31T06:10:02.052Z,18.90
2023-03-31T06:11:02.042Z,19.80
2023-03-31T06:12:02.041Z,19.70
2023-03-31T06:13:01.990Z,19.30
2023-03-31T06:14:01.984Z,19.20
2023-03-31T06:15:01.981Z,19.30
2023-03-31T06:16:01.984Z,20.80
2023-03-31T06:17:01.948Z,19.50
2023-03-31T06:18:01.976Z,19.30
2023-03-31T06:19:01.903Z,18.20
2023-03-31T06:20:05.703Z,19.80
2023-03-31T06:21:02.876Z,19.60
2023-03-31T06:22:01.876Z,19.40
2023-03-31T06:23:01.868Z,19.00
2023-03-31T06:24:01.850Z,18.90
2023-03-31T06:25:01.967Z,19.00
2023-03-31T06:26:01.806Z,18.60
2023-03-31T06:27:01.797Z,18.70
2023-03-31T06:28:01.817Z,19.60
2023-03-31T06:29:01.767Z,19.20
2023-03-31T06:30:01.843Z,19.80
2023-03-31T06:31:01.754Z,19.30
2023-03-31T06:32:01.770Z,19.30
2023-03-31T06:33:01.777Z,19.30
2023-03-31T06:34:01.703Z,18.40
2023-03-31T06:35:01.689Z,18.50
2023-03-31T06:36:01.834Z,18.00
2023-03-31T06:37:01.663Z,18.20
2023-03-31T06:38:01.674Z,18.70
2023-03-31T06:39:01.634Z,18.80
2023-03-31T06:40:01.681Z,18.20
2023-03-31T06:41:01.671Z,17.90
2023-03-31T06:42:01.599Z,18.30
2023-03-31T06:43:01.600Z,17.60
2023-03-31T06:44:01.561Z,19.10
2023-03-31T06:45:01.565Z,18.00
2023-03-31T06:46:01.615Z,17.60
2023-03-31T06:47:01.521Z,18.70
2023-03-31T06:48:01.657Z,18.20
2023-03-31T06:49:01.530Z,18.00
2023-03-31T06:50:01.531Z,18.10
2023-03-31T06:51:01.496Z,17.20
2023-03-31T06:52:01.477Z,18.70
2023-03-31T06:53:01.696Z,17.60
2023-03-31T06:54:01.438Z,18.00
2023-03-31T06:55:01.442Z,18.00
2023-03-31T06:56:01.405Z,17.50
2023-03-31T06:57:01.438Z,17.90
2023-03-31T06:58:01.401Z,17.50
2023-03-31T06:59:01.367Z,16.80
2023-03-31T07:00:01.345Z,17.90
2023-03-31T07:01:01.398Z,17.60
2023-03-31T07:02:01.362Z,16.90
2023-03-31T07:03:01.537Z,17.40
2023-03-31T07:04:01.288Z,17.10
2023-03-31T07:05:01.309Z,17.00
2023-03-31T07:06:01.260Z,17.10
2023-03-31T07:07:01.260Z,17.00
2023-03-31T07:08:01.282Z,16.70
2023-03-31T07:09:01.235Z,17.40
2023-03-31T07:10:01.270Z,16.80
2023-03-31T07:11:01.229Z,16.60
2023-03-31T07:12:01.230Z,16.60
2023-03-31T07:13:02.311Z,16.70
2023-03-31T07:14:01.184Z,16.50
2023-03-31T07:15:01.160Z,16.90
2023-03-31T07:16:01.168Z,16.30
2023-03-31T07:17:01.117Z,16.40
2023-03-31T07:18:01.203Z,16.10
2023-03-31T07:19:01.098Z,15.60
2023-03-31T07:20:01.118Z,15.10
2023-03-31T07:21:01.085Z,15.60
2023-03-31T07:22:01.092Z,15.90
2023-03-31T07:23:01.060Z,16.00
2023-03-31T07:24:01.055Z,16.30
2023-03-31T07:25:01.041Z,15.60
2023-03-31T07:26:01.000Z,15.70
2023-03-31T07:27:01.005Z,17.10
2023-03-31T07:28:00.976Z,15.80
2023-03-31T07:29:00.967Z,16.10
2023-03-31T07:30:00.969Z,15.50
2023-03-31T07:31:00.934Z,15.10
2023-03-31T07:32:00.955Z,15.30
2023-03-31T07:33:00.915Z,15.30
2023-03-31T07:34:00.915Z,15.40
2023-03-31T07:35:00.904Z,15.10
2023-03-31T07:36:11.861Z,15.30
2023-03-31T07:37:01.847Z,15.30
2023-03-31T07:38:00.864Z,15.60
2023-03-31T07:39:00.845Z,15.20
2023-03-31T07:40:00.839Z,15.20
2023-03-31T07:41:08.533Z,15.40
2023-03-31T07:42:01.823Z,15.50
2023-03-31T07:43:00.784Z,15.50
2023-03-31T07:44:00.798Z,14.70
2023-03-31T07:45:00.755Z,14.60
2023-03-31T07:46:00.815Z,14.60
2023-03-31T07:47:00.717Z,14.20
2023-03-31T07:48:00.773Z,14.90
2023-03-31T07:49:00.706Z,14.90
2023-03-31T07:50:00.724Z,14.70
2023-03-31T07:51:00.685Z,14.80
2023-03-31T07:52:00.659Z,14.90
2023-03-31T07:53:00.649Z,14.50
2023-03-31T07:54:00.655Z,15.30
2023-03-31T07:55:00.671Z,14.60
2023-03-31T07:56:00.617Z,14.40
2023-03-31T07:57:00.638Z,14.50
2023-03-31T07:58:00.592Z,14.20
2023-03-31T07:59:00.557Z,14.40
2023-03-31T08:00:00.558Z,15.10
2023-03-31T08:01:00.554Z,14.40
2023-03-31T08:02:00.593Z,13.80
2023-03-31T08:03:00.682Z,13.80
2023-03-31T08:04:00.579Z,14.00
2023-03-31T08:05:00.549Z,14.20
2023-03-31T08:06:00.469Z,14.20
2023-03-31T08:07:00.463Z,14.30
2023-03-31T08:08:00.506Z,13.70
2023-03-31T08:09:00.455Z,13.40
2023-03-31T08:10:00.428Z,14.10
2023-03-31T08:11:00.416Z,13.60
2023-03-31T08:12:00.429Z,13.90
2023-03-31T08:13:00.380Z,13.10
2023-03-31T08:14:00.373Z,13.70
2023-03-31T08:15:00.368Z,14.10
2023-03-31T08:16:00.367Z,13.50
2023-03-31T08:17:00.328Z,13.40
2023-03-31T08:18:00.371Z,13.10
2023-03-31T08:19:00.301Z,13.80
2023-03-31T08:20:05.155Z,13.40
2023-03-31T08:21:01.267Z,13.10
2023-03-31T08:22:00.289Z,13.40
2023-03-31T08:23:00.276Z,13.30
2023-03-31T08:24:00.252Z,13.10
2023-03-31T08:25:00.220Z,14.60
2023-03-31T08:26:00.200Z,13.00
2023-03-31T08:27:00.204Z,12.90
2023-03-31T08:28:00.211Z,13.10
2023-03-31T08:29:00.175Z,12.80
2023-03-31T08:30:00.202Z,14.00
2023-03-31T08:31:00.146Z,13.30
2023-03-31T08:32:00.215Z,13.00
2023-03-31T08:33:00.187Z,12.70
2023-03-31T08:34:00.139Z,12.80
2023-03-31T08:35:00.123Z,12.80
2023-03-31T08:36:00.148Z,12.70
2023-03-31T08:37:00.065Z,14.40
2023-03-31T08:38:00.102Z,13.10
2023-03-31T08:39:00.059Z,12.30
2023-03-31T08:40:00.039Z,12.60
2023-03-31T08:41:00.022Z,12.60
2023-03-31T08:42:00.064Z,12.30
2023-03-31T08:43:00.003Z,13.00
2023-03-31T08:44:00.006Z,12.40
2023-03-31T08:45:00.009Z,12.60
2023-03-31T08:45:59.998Z,11.90
2023-03-31T08:46:59.943Z,12.40
2023-03-31T08:47:59.978Z,12.20
2023-03-31T08:48:59.953Z,12.50
2023-03-31T08:49:59.933Z,12.30
2023-03-31T08:50:59.920Z,12.80
2023-03-31T08:51:59.872Z,12.40
2023-03-31T08:52:59.867Z,13.20
2023-03-31T08:53:59.850Z,13.60
2023-03-31T08:54:59.868Z,12.20
2023-03-31T08:55:59.864Z,12.90
2023-03-31T08:56:59.860Z,13.40
2023-03-31T08:57:59.811Z,12.10
2023-03-31T08:58:59.814Z,12.60
2023-03-31T08:59:59.809Z,11.60
2023-03-31T09:00:59.831Z,12.30
2023-03-31T09:01:59.766Z,12.60
2023-03-31T09:02:59.795Z,12.20
2023-03-31T09:03:59.957Z,12.40
2023-03-31T09:04:59.717Z,12.20
2023-03-31T09:06:00.905Z,11.90
2023-03-31T09:06:59.704Z,12.00
2023-03-31T09:07:59.678Z,12.70
2023-03-31T09:08:59.675Z,11.80
2023-03-31T09:09:59.674Z,12.10
2023-03-31T09:10:59.637Z,11.50
2023-03-31T09:11:59.663Z,11.40
2023-03-31T09:12:59.600Z,11.30
2023-03-31T09:13:59.592Z,11.50
2023-03-31T09:14:59.570Z,12.20
2023-03-31T09:15:59.579Z,12.00
2023-03-31T09:16:59.614Z,11.50
2023-03-31T09:17:59.604Z,11.30
2023-03-31T09:18:59.544Z,11.90
2023-03-31T09:19:59.535Z,11.70
2023-03-31T09:20:59.529Z,11.90
2023-03-31T09:21:59.495Z,11.40
2023-03-31T09:22:59.474Z,12.20
2023-03-31T09:23:59.485Z,11.90
2023-03-31T09:24:59.465Z,12.30
2023-03-31T09:25:59.428Z,11.60
2023-03-31T09:26:59.430Z,12.20
2023-03-31T09:27:59.423Z,11.20
2023-03-31T09:28:59.429Z,11.60
2023-03-31T09:29:59.394Z,11.90
2023-03-31T09:30:59.379Z,12.30
2023-03-31T09:31:59.375Z,11.50
2023-03-31T09:32:59.405Z,11.80
2023-03-31T09:33:59.357Z,12.60
2023-03-31T09:34:59.328Z,12.00
2023-03-31T09:35:59.326Z,11.80
2023-03-31T09:36:59.292Z,12.70
2023-03-31T09:37:59.285Z,12.00
2023-03-31T09:38:59.277Z,11.60
2023-03-31T09:39:59.269Z,11.70
2023-03-31T09:40:59.234Z,11.90
2023-03-31T09:41:59.238Z,11.90
2023-03-31T09:42:59.256Z,11.20
2023-03-31T09:43:59.195Z,11.30
2023-03-31T09:44:59.209Z,10.60
2023-03-31T09:46:09.338Z,12.10
2023-03-31T09:47:00.305Z,10.60
2023-03-31T09:47:59.284Z,11.00
2023-03-31T09:48:59.129Z,10.90
2023-03-31T09:49:59.151Z,10.60
2023-03-31T09:50:59.177Z,11.20
2023-03-31T09:51:59.098Z,10.90
2023-03-31T09:52:59.178Z,11.40
2023-03-31T09:54:07.197Z,11.10
2023-03-31T09:54:59.084Z,10.70
2023-03-31T09:55:59.075Z,11.00
2023-03-31T09:56:59.063Z,10.90
2023-03-31T09:57:59.180Z,11.40
2023-03-31T09:58:59.001Z,10.90
2023-03-31T09:59:58.997Z,11.00
2023-03-31T10:00:58.993Z,11.50
2023-03-31T10:01:59.127Z,10.80
2023-03-31T10:02:59.011Z,11.40
2023-03-31T10:03:59.140Z,11.20
2023-03-31T10:04:58.915Z,11.50
2023-03-31T10:05:58.969Z,11.30
2023-03-31T10:06:58.927Z,11.00
2023-03-31T10:07:58.881Z,11.60
2023-03-31T10:08:58.865Z,12.10
2023-03-31T10:09:58.852Z,11.60
2023-03-31T10:10:58.864Z,11.50
2023-03-31T10:11:58.863Z,11.70
2023-03-31T10:12:58.832Z,12.00
2023-03-31T10:13:58.857Z,12.00
2023-03-31T10:14:58.806Z,11.60
2023-03-31T10:15:58.832Z,11.60
2023-03-31T10:17:01.087Z,11.90
2023-03-31T10:17:58.774Z,11.90
2023-03-31T10:18:58.761Z,12.00
2023-03-31T10:19:58.743Z,12.10
2023-03-31T10:20:58.722Z,12.30
2023-03-31T10:21:58.705Z,12.10
2023-03-31T10:22:58.709Z,12.20
2023-03-31T10:23:58.686Z,11.50
2023-03-31T10:24:58.673Z,11.00
2023-03-31T10:25:58.655Z,11.40
2023-03-31T10:26:58.641Z,11.50
2023-03-31T10:27:58.623Z,11.20
2023-03-31T10:28:58.619Z,11.40
2023-03-31T10:29:58.615Z,11.30
2023-03-31T10:30:58.700Z,11.60
2023-03-31T10:31:58.627Z,11.20
2023-03-31T10:33:01.557Z,12.00
2023-03-31T10:33:59.544Z,10.90
2023-03-31T10:34:58.539Z,11.70
2023-03-31T10:35:58.563Z,10.80
2023-03-31T10:36:58.524Z,10.80
2023-03-31T10:37:58.497Z,11.10
2023-03-31T10:38:58.494Z,10.60
2023-03-31T10:39:58.471Z,10.40
2023-03-31T10:40:58.504Z,10.20
2023-03-31T10:41:58.455Z,10.30
2023-03-31T10:42:58.474Z,10.50
2023-03-31T10:43:58.421Z,10.20
2023-03-31T10:44:58.417Z,10.20
2023-03-31T10:45:58.443Z,9.60
2023-03-31T10:46:58.430Z,9.60
2023-03-31T10:47:58.436Z,9.90
2023-03-31T10:48:58.370Z,10.70
2023-03-31T10:49:58.360Z,10.50
2023-03-31T10:50:58.335Z,10.00
2023-03-31T10:51:58.312Z,9.90
2023-03-31T10:52:58.319Z,10.20
2023-03-31T10:53:58.286Z,10.30
2023-03-31T10:54:58.272Z,10.90
2023-03-31T10:55:58.267Z,10.00
2023-03-31T10:56:58.244Z,10.10
2023-03-31T10:57:58.233Z,10.20
2023-03-31T10:59:05.211Z,10.30
2023-03-31T10:59:59.202Z,10.80
2023-03-31T11:00:58.181Z,10.50
2023-03-31T11:02:00.284Z,10.60
2023-03-31T11:02:58.277Z,11.20
2023-03-31T11:03:58.229Z,10.30
2023-03-31T11:04:58.154Z,10.20
2023-03-31T11:05:58.131Z,10.10
2023-03-31T11:06:58.134Z,10.10
2023-03-31T11:07:58.098Z,10.30
2023-03-31T11:08:58.092Z,10.50
2023-03-31T11:09:58.083Z,10.30
2023-03-31T11:10:58.069Z,10.70
2023-03-31T11:11:58.054Z,10.30
2023-03-31T11:12:58.046Z,10.50
2023-03-31T11:13:58.024Z,9.90
2023-03-31T11:14:58.015Z,10.60
2023-03-31T11:15:58.007Z,10.40
2023-03-31T11:16:58.019Z,10.40
2023-03-31T11:17:58.008Z,11.10
2023-03-31T11:18:57.948Z,10.30
2023-03-31T11:19:57.930Z,11.00
2023-03-31T11:20:57.956Z,10.80
2023-03-31T11:21:57.945Z,10.80
2023-03-31T11:22:57.896Z,11.10
2023-03-31T11:23:57.894Z,11.00
2023-03-31T11:24:57.876Z,11.20
2023-03-31T11:25:57.873Z,10.80
2023-03-31T11:26:57.873Z,10.70
2023-03-31T11:27:57.841Z,11.00
2023-03-31T11:28:57.848Z,11.00
2023-03-31T11:29:57.818Z,10.80
2023-03-31T11:30:57.825Z,10.80
2023-03-31T11:31:57.819Z,10.60
2023-03-31T11:32:57.832Z,10.90
2023-03-31T11:33:57.743Z,11.00
2023-03-31T11:34:57.747Z,11.30
2023-03-31T11:35:57.725Z,10.30
2023-03-31T11:36:57.734Z,10.10
2023-03-31T11:37:57.689Z,10.50
2023-03-31T11:38:57.703Z,10.40
2023-03-31T11:39:57.684Z,11.30
2023-03-31T11:40:57.680Z,11.10
2023-03-31T11:41:57.699Z,10.30
2023-03-31T11:42:57.643Z,11.40
2023-03-31T11:43:57.610Z,11.20
2023-03-31T11:44:57.615Z,11.10
2023-03-31T11:45:57.633Z,10.80
2023-03-31T11:46:57.590Z,10.70
2023-03-31T11:47:57.642Z,10.90
2023-03-31T11:48:57.577Z,10.30
2023-03-31T11:49:57.578Z,10.80
2023-03-31T11:50:57.534Z,10.60
2023-03-31T11:51:57.519Z,10.30
2023-03-31T11:52:57.525Z,9.90
2023-03-31T11:53:57.526Z,10.30
2023-03-31T11:54:57.464Z,10.20
2023-03-31T11:55:57.475Z,9.90
2023-03-31T11:56:57.472Z,10.50
2023-03-31T11:57:57.444Z,10.10
2023-03-31T11:58:57.467Z,10.40
2023-03-31T11:59:57.480Z,10.40
2023-03-31T12:00:57.402Z,10.40
2023-03-31T12:01:57.376Z,10.40
2023-03-31T12:02:57.419Z,9.60
2023-03-31T12:03:57.423Z,10.00
2023-03-31T12:04:57.369Z,9.60
2023-03-31T12:05:57.372Z,9.80
2023-03-31T12:06:57.308Z,9.80
2023-03-31T12:07:57.305Z,10.30
2023-03-31T12:08:57.325Z,10.20
2023-03-31T12:09:57.278Z,9.80
2023-03-31T12:10:57.266Z,10.00
2023-03-31T12:11:57.256Z,9.90
2023-03-31T12:12:57.225Z,9.90
2023-03-31T12:13:57.215Z,9.50
2023-03-31T12:14:57.205Z,9.90
2023-03-31T12:15:57.197Z,9.80
2023-03-31T12:16:57.217Z,10.00
2023-03-31T12:17:57.226Z,9.30
2023-03-31T12:19:04.382Z,10.40
2023-03-31T12:19:57.171Z,9.90
2023-03-31T12:20:57.138Z,9.10
2023-03-31T12:21:57.119Z,9.40
2023-03-31T12:22:57.095Z,9.90
2023-03-31T12:23:57.123Z,9.80
2023-03-31T12:24:57.089Z,9.80
2023-03-31T12:25:57.086Z,9.40
2023-03-31T12:26:57.068Z,9.80
2023-03-31T12:27:57.030Z,9.60
2023-03-31T12:28:57.207Z,9.60
2023-03-31T12:29:57.026Z,9.50
2023-03-31T12:30:57.033Z,9.20
2023-03-31T12:31:57.163Z,9.20
2023-03-31T12:32:56.969Z,9.20
2023-03-31T12:33:57.007Z,9.20
2023-03-31T12:34:56.952Z,9.90
2023-03-31T12:35:56.961Z,9.30
2023-03-31T12:36:56.918Z,9.20
2023-03-31T12:37:56.909Z,9.50
2023-03-31T12:38:56.904Z,9.50
2023-03-31T12:39:56.881Z,9.80
2023-03-31T12:40:56.882Z,9.50
2023-03-31T12:41:56.830Z,10.00
2023-03-31T12:42:56.827Z,10.20
2023-03-31T12:43:56.828Z,10.30
2023-03-31T12:44:56.831Z,9.80
2023-03-31T12:45:56.784Z,10.10
2023-03-31T12:46:56.857Z,9.60
2023-03-31T12:47:56.813Z,9.80
2023-03-31T12:48:56.822Z,9.80
2023-03-31T12:49:56.889Z,10.50
2023-03-31T12:50:56.720Z,10.30
2023-03-31T12:51:56.734Z,10.30
2023-03-31T12:52:56.694Z,10.30
2023-03-31T12:53:57.115Z,10.50
2023-03-31T12:54:56.676Z,10.40
2023-03-31T12:55:56.654Z,10.50